Time;durP1;ratioP1;P1;durP2;ratioP2;P2;SDS_P1;SDS_P2;PMS_P1;PMS_P2;Temp;Humidity;BMP_temperature;BMP_pressure;BME280_temperature;BME280_humidity;BME280_pressure;Samples;Min_cycle;Max_cycle;Signal;HPM_P1;HPM_P2
2022/08/11 00:02:30;;;;;;;1.55;1.45;;;;;;;;;;5037155;28;20206;-88
2022/08/11 00:05:06;;;;;;;1.00;1.00;;;;;;;;;;5035927;28;20257;-87
2022/08/11 00:07:34;;;;;;;1.13;1.00;;;;;;;;;;5035650;28;20240;-87
2022/08/11 00:10:02;;;;;;;0.80;0.80;;;;;;;;;;5035612;28;20241;-87
2022/08/11 00:12:31;;;;;;;0.75;0.75;;;;;;;;;;5036637;28;20626;-87
2022/08/11 00:15:01;;;;;;;1.15;1.00;;;;;;;;;;5036875;28;20268;-88
2022/08/11 00:17:31;;;;;;;1.77;0.95;;;;;;;;;;5037405;28;20229;-86
2022/08/11 00:20:09;;;;;;;1.27;1.17;;;;;;;;;;5037478;28;20194;-85
2022/08/11 00:22:38;;;;;;;0.82;0.82;;;;;;;;;;5036191;28;20710;-87
2022/08/11 00:25:18;;;;;;;0.80;0.80;;;;;;;;;;5035930;28;20300;-86
2022/08/11 00:27:48;;;;;;;0.80;0.80;;;;;;;;;;5037493;28;20226;-87
2022/08/11 00:30:17;;;;;;;1.15;1.15;;;;;;;;;;5038851;28;20206;-86
2022/08/11 00:32:52;;;;;;;1.02;1.02;;;;;;;;;;5039985;28;20212;-86
2022/08/11 00:35:26;;;;;;;1.45;0.80;;;;;;;;;;5040029;28;20221;-86
2022/08/11 00:37:55;;;;;;;0.95;0.95;;;;;;;;;;5037492;28;20281;-87
2022/08/11 00:40:28;;;;;;;0.93;0.93;;;;;;;;;;5037681;28;20209;-85
2022/08/11 00:43:18;;;;;;;1.20;1.20;;;;;;;;;;5036197;28;20609;-86
2022/08/11 00:46:05;;;;;;;1.00;0.95;;;;;;;;;;5035533;28;20289;-87
2022/08/11 00:48:41;;;;;;;1.45;1.35;;;;;;;;;;5038124;28;20682;-86
2022/08/11 00:51:15;;;;;;;0.80;0.80;;;;;;;;;;5039078;28;20190;-88
2022/08/11 00:53:53;;;;;;;1.42;1.00;;;;;;;;;;5037491;28;20222;-86
2022/08/11 00:57:11;;;;;;;0.93;0.93;;;;;;;;;;5036801;28;20282;-86
2022/08/11 01:00:10;;;;;;;0.90;0.90;;;;;;;;;;5036780;28;20218;-86
2022/08/11 01:03:16;;;;;;;0.93;0.93;;;;;;;;;;5034177;28;20257;-87
2022/08/11 01:06:03;;;;;;;1.13;1.13;;;;;;;;;;5035691;28;20182;-86
2022/08/11 01:09:05;;;;;;;1.20;1.13;;;;;;;;;;5038483;28;20568;-88
2022/08/11 01:12:04;;;;;;;0.90;0.90;;;;;;;;;;5023940;28;20236;-87
2022/08/11 01:15:19;;;;;;;0.75;0.75;;;;;;;;;;5035358;28;20268;-86
2022/08/11 01:19:02;;;;;;;1.33;1.08;;;;;;;;;;5039320;28;20207;-87
2022/08/11 01:22:31;;;;;;;2.03;0.82;;;;;;;;;;5038741;28;20210;-86
2022/08/11 01:26:01;;;;;;;1.20;0.88;;;;;;;;;;5009185;28;20258;-86
2022/08/11 01:29:20;;;;;;;0.70;0.70;;;;;;;;;;4956903;28;20239;-87
2022/08/11 01:32:56;;;;;;;1.98;1.33;;;;;;;;;;5027435;28;20195;-85
2022/08/11 01:36:29;;;;;;;0.63;0.63;;;;;;;;;;4974690;28;20209;-85
2022/08/11 01:39:30;;;;;;;1.02;0.80;;;;;;;;;;5015463;28;20249;-85
2022/08/11 01:45:26;;;;;;;1.20;1.10;;;;;;;;;;5041991;28;20237;-86
2022/08/11 01:48:05;;;;;;;0.82;0.82;;;;;;;;;;5039636;28;20650;-86
2022/08/11 01:51:07;;;;;;;1.00;1.00;;;;;;;;;;5037111;28;20293;-88
2022/08/11 01:53:47;;;;;;;0.80;0.80;;;;;;;;;;5030900;28;20225;-86
2022/08/11 01:56:43;;;;;;;1.00;0.90;;;;;;;;;;5038247;28;20230;-86
2022/08/11 01:59:18;;;;;;;1.05;0.95;;;;;;;;;;5036334;28;20253;-86
2022/08/11 02:05:21;;;;;;;0.98;0.98;;;;;;;;;;5038684;28;20211;-86
2022/08/11 02:08:00;;;;;;;0.88;0.88;;;;;;;;;;5039815;28;20190;-85
2022/08/11 02:13:32;;;;;;;1.10;1.10;;;;;;;;;;5044302;28;20224;-88
2022/08/11 02:16:16;;;;;;;3.88;2.65;;;;;;;;;;5035785;28;20206;-83
2022/08/11 02:24:55;;;;;;;0.90;0.90;;;;;;;;;;4993616;28;20332;-85
2022/08/11 02:27:27;;;;;;;1.40;1.00;;;;;;;;;;5021269;28;20229;-84
2022/08/11 02:30:06;;;;;;;1.33;1.20;;;;;;;;;;5035936;28;20193;-84
2022/08/11 02:35:31;;;;;;;1.00;1.00;;;;;;;;;;5036215;28;20190;-84
2022/08/11 02:38:12;;;;;;;1.10;0.95;;;;;;;;;;5035830;28;20182;-84
2022/08/11 02:40:53;;;;;;;1.40;1.10;;;;;;;;;;5035882;28;20214;-86
2022/08/11 02:43:40;;;;;;;1.10;1.10;;;;;;;;;;5034933;28;20258;-84
2022/08/11 02:46:21;;;;;;;1.20;1.02;;;;;;;;;;5036150;28;20195;-84
2022/08/11 02:52:05;;;;;;;1.00;1.00;;;;;;;;;;5040481;28;20248;-85
2022/08/11 02:54:39;;;;;;;0.82;0.82;;;;;;;;;;5039889;28;20258;-85
2022/08/11 02:57:13;;;;;;;0.90;0.90;;;;;;;;;;5039805;28;20233;-86
2022/08/11 02:59:51;;;;;;;1.08;1.08;;;;;;;;;;5039800;28;20190;-85
2022/08/11 03:02:54;;;;;;;1.33;1.20;;;;;;;;;;5039589;28;20206;-85
2022/08/11 03:05:42;;;;;;;1.13;1.10;;;;;;;;;;5039379;28;20268;-85
2022/08/11 03:08:23;;;;;;;1.13;1.13;;;;;;;;;;5039480;28;20194;-85
2022/08/11 03:16:51;;;;;;;0.80;0.80;;;;;;;;;;5039470;28;20186;-85
2022/08/11 03:19:30;;;;;;;1.10;1.10;;;;;;;;;;5039232;28;20217;-84
2022/08/11 03:22:08;;;;;;;1.00;1.00;;;;;;;;;;5039030;28;20187;-85
2022/08/11 03:24:57;;;;;;;2.38;1.00;;;;;;;;;;5039014;28;20250;-85
2022/08/11 03:27:36;;;;;;;0.90;0.90;;;;;;;;;;5038476;28;20238;-85
2022/08/11 03:30:11;;;;;;;0.95;0.95;;;;;;;;;;5039200;28;20196;-85
2022/08/11 03:35:45;;;;;;;1.08;1.02;;;;;;;;;;5037263;28;20281;-84
2022/08/11 03:38:16;;;;;;;1.33;1.23;;;;;;;;;;5038451;28;20206;-85
2022/08/11 03:44:03;;;;;;;1.10;1.10;;;;;;;;;;5012609;28;20226;-86
2022/08/11 03:46:45;;;;;;;1.35;1.00;;;;;;;;;;5038541;28;20650;-86
2022/08/11 03:49:30;;;;;;;2.20;0.95;;;;;;;;;;5038750;28;20238;-85
2022/08/11 03:52:08;;;;;;;1.10;1.10;;;;;;;;;;5038437;28;20206;-83
2022/08/11 03:54:48;;;;;;;1.10;1.00;;;;;;;;;;5038268;28;20253;-84
2022/08/11 03:57:59;;;;;;;1.15;1.15;;;;;;;;;;5039070;28;20218;-83
2022/08/11 04:01:21;;;;;;;1.20;1.13;;;;;;;;;;5038251;28;20229;-85
2022/08/11 04:04:29;;;;;;;0.73;0.73;;;;;;;;;;4977014;28;20717;-85
2022/08/11 04:08:04;;;;;;;1.25;1.15;;;;;;;;;;5038617;28;20570;-84
2022/08/11 04:11:13;;;;;;;1.00;1.00;;;;;;;;;;5038538;28;20226;-85
2022/08/11 04:18:18;;;;;;;0.70;0.70;;;;;;;;;;5038413;28;20316;-84
2022/08/11 04:21:11;;;;;;;1.30;1.20;;;;;;;;;;4980163;28;20207;-84
2022/08/11 04:24:25;;;;;;;0.95;0.95;;;;;;;;;;5037717;28;20229;-83
2022/08/11 04:27:34;;;;;;;1.45;1.35;;;;;;;;;;5016411;28;20301;-85
2022/08/11 04:30:09;;;;;;;1.40;1.10;;;;;;;;;;5037517;28;20264;-85
2022/08/11 04:33:16;;;;;;;1.35;1.13;;;;;;;;;;5038190;28;20222;-86
2022/08/11 04:35:54;;;;;;;1.00;1.00;;;;;;;;;;5038371;28;20198;-85
2022/08/11 04:39:05;;;;;;;1.30;1.20;;;;;;;;;;5038565;28;20602;-84
2022/08/11 04:45:36;;;;;;;2.72;0.93;;;;;;;;;;4979964;28;20218;-85
2022/08/11 05:03:54;;;;;;;0.90;0.90;;;;;;;;;;5037995;28;20729;-85
2022/08/11 05:07:06;;;;;;;1.20;1.10;;;;;;;;;;5038924;28;20634;-84
2022/08/11 05:09:58;;;;;;;1.13;1.00;;;;;;;;;;5037574;28;20183;-86
2022/08/11 05:12:41;;;;;;;1.27;1.17;;;;;;;;;;5037854;28;20187;-86
2022/08/11 05:35:28;;;;;;;0.93;0.93;;;;;;;;;;5038851;28;20298;-86
2022/08/11 05:57:32;;;;;;;1.02;1.02;;;;;;;;;;5038114;28;20233;-83
2022/08/11 06:00:04;;;;;;;0.98;0.98;;;;;;;;;;5037505;28;20194;-83
2022/08/11 06:02:31;;;;;;;1.52;1.42;;;;;;;;;;5037150;28;20179;-84
2022/08/11 06:05:00;;;;;;;0.80;0.80;;;;;;;;;;5036555;28;20229;-85
2022/08/11 06:07:31;;;;;;;1.00;1.00;;;;;;;;;;5037734;28;20213;-84
2022/08/11 06:09:59;;;;;;;1.05;0.95;;;;;;;;;;5037920;28;20298;-84
2022/08/11 06:12:30;;;;;;;0.80;0.80;;;;;;;;;;5037395;28;20577;-86
2022/08/11 06:15:04;;;;;;;2.70;1.75;;;;;;;;;;5036916;28;20650;-86
2022/08/11 06:17:34;;;;;;;0.98;0.98;;;;;;;;;;5037205;28;20187;-86
2022/08/11 06:20:05;;;;;;;1.10;1.10;;;;;;;;;;5037486;28;20198;-86
2022/08/11 06:22:33;;;;;;;1.10;1.10;;;;;;;;;;5039672;28;20187;-85
2022/08/11 06:25:02;;;;;;;0.70;0.70;;;;;;;;;;5042475;28;20256;-85
2022/08/11 06:27:32;;;;;;;1.00;1.00;;;;;;;;;;5041722;28;20256;-86
2022/08/11 06:29:59;;;;;;;1.30;1.20;;;;;;;;;;5043268;28;20233;-85
2022/08/11 06:32:34;;;;;;;1.10;0.98;;;;;;;;;;5041070;28;20617;-85
2022/08/11 06:35:13;;;;;;;0.73;0.73;;;;;;;;;;5041906;28;20708;-85
2022/08/11 06:37:52;;;;;;;1.00;1.00;;;;;;;;;;5043201;28;20627;-85
2022/08/11 06:40:31;;;;;;;0.65;0.65;;;;;;;;;;5043056;28;20187;-85
2022/08/11 06:43:05;;;;;;;1.08;1.00;;;;;;;;;;5041724;28;20193;-85
2022/08/11 06:45:40;;;;;;;1.00;1.00;;;;;;;;;;5041369;28;20249;-85
2022/08/11 06:48:17;;;;;;;1.30;1.20;;;;;;;;;;5041115;28;20266;-86
2022/08/11 06:53:36;;;;;;;1.00;1.00;;;;;;;;;;5041683;28;20221;-85
2022/08/11 07:01:46;;;;;;;1.20;1.10;;;;;;;;;;5039561;28;20189;-84
2022/08/11 07:04:23;;;;;;;1.70;1.10;;;;;;;;;;5040804;28;20226;-83
2022/08/11 07:16:04;;;;;;;0.90;0.90;;;;;;;;;;5042377;28;20194;-85
2022/08/11 07:29:55;;;;;;;1.65;1.15;;;;;;;;;;5040053;28;20186;-85
2022/08/11 07:32:30;;;;;;;1.08;1.08;;;;;;;;;;5040876;28;20222;-83
2022/08/11 07:35:03;;;;;;;1.10;1.10;;;;;;;;;;5041075;28;20253;-85
2022/08/11 07:37:34;;;;;;;0.90;0.90;;;;;;;;;;5040119;28;20182;-84
2022/08/11 07:40:01;;;;;;;2.35;1.20;;;;;;;;;;5040917;28;20218;-84
2022/08/11 07:42:34;;;;;;;1.48;1.40;;;;;;;;;;5040744;28;20624;-84
2022/08/11 07:53:27;;;;;;;1.60;1.50;;;;;;;;;;5042238;28;20240;-85
2022/08/11 07:56:02;;;;;;;1.20;1.20;;;;;;;;;;5041320;28;20225;-85
2022/08/11 08:18:02;;;;;;;1.13;1.13;;;;;;;;;;5033946;28;20737;-84
2022/08/11 08:20:33;;;;;;;1.10;1.10;;;;;;;;;;5034284;28;20198;-81
2022/08/11 08:23:03;;;;;;;1.38;1.25;;;;;;;;;;5034861;28;20258;-80
2022/08/11 08:25:34;;;;;;;1.05;1.05;;;;;;;;;;5035142;28;20223;-82
2022/08/11 08:28:09;;;;;;;1.73;1.50;;;;;;;;;;5058376;23;20261;-81
2022/08/11 08:30:49;;;;;;;1.10;1.10;;;;;;;;;;5020982;28;20639;-82
2022/08/11 08:33:21;;;;;;;1.48;1.38;;;;;;;;;;5020958;28;20191;-84
2022/08/11 08:35:51;;;;;;;1.83;1.73;;;;;;;;;;5020669;28;20227;-83
2022/08/11 08:38:19;;;;;;;1.17;1.17;;;;;;;;;;5021111;28;20230;-83
2022/08/11 08:40:48;;;;;;;1.60;1.50;;;;;;;;;;5022099;28;20202;-83
2022/08/11 08:43:17;;;;;;;1.42;1.40;;;;;;;;;;5019989;28;20226;-81
2022/08/11 08:45:45;;;;;;;1.50;1.40;;;;;;;;;;5021581;28;20215;-82
2022/08/11 08:48:16;;;;;;;1.90;1.70;;;;;;;;;;5020432;28;20191;-82
2022/08/11 08:53:46;;;;;;;2.30;2.10;;;;;;;;;;5000937;28;20210;-82
2022/08/11 08:56:15;;;;;;;1.80;1.70;;;;;;;;;;5020298;28;20293;-82
2022/08/11 08:58:43;;;;;;;1.65;1.55;;;;;;;;;;5022627;28;20610;-82
2022/08/11 09:01:12;;;;;;;1.90;1.80;;;;;;;;;;5021722;28;20623;-82
2022/08/11 09:03:39;;;;;;;2.13;2.03;;;;;;;;;;5020623;28;20180;-82
2022/08/11 09:06:08;;;;;;;1.83;1.70;;;;;;;;;;5018773;28;20285;-82
2022/08/11 09:08:36;;;;;;;2.47;2.03;;;;;;;;;;5018871;28;20245;-83
2022/08/11 09:13:52;;;;;;;1.67;1.55;;;;;;;;;;5019849;28;20240;-82
2022/08/11 09:16:20;;;;;;;1.63;1.52;;;;;;;;;;5019554;28;20353;-83
2022/08/11 09:18:47;;;;;;;2.10;2.00;;;;;;;;;;5019557;28;20213;-83
2022/08/11 09:21:19;;;;;;;2.13;2.03;;;;;;;;;;5021400;28;20233;-81
2022/08/11 09:29:24;;;;;;;1.80;1.70;;;;;;;;;;5009957;28;20194;-83
2022/08/11 09:31:53;;;;;;;1.83;1.73;;;;;;;;;;5019975;28;20189;-84
2022/08/11 09:34:21;;;;;;;1.90;1.80;;;;;;;;;;5020187;28;20229;-82
2022/08/11 09:44:45;;;;;;;1.70;1.60;;;;;;;;;;5020232;28;20214;-82
2022/08/11 09:45:14;;;;;;;1.92;1.83;;;;;;;;;;5019816;28;20621;-84
2022/08/11 09:47:44;;;;;;;2.10;2.00;;;;;;;;;;5018570;28;20207;-83
2022/08/11 09:50:12;;;;;;;1.88;1.77;;;;;;;;;;5019149;28;20566;-83
2022/08/11 09:52:41;;;;;;;3.13;2.05;;;;;;;;;;5019334;28;20365;-83
2022/08/11 09:55:10;;;;;;;1.75;1.65;;;;;;;;;;5020979;28;20305;-84
2022/08/11 10:00:36;;;;;;;2.35;2.15;;;;;;;;;;5019380;28;20710;-84
2022/08/11 10:03:05;;;;;;;2.60;2.50;;;;;;;;;;5020761;28;20187;-83
2022/08/11 10:08:20;;;;;;;1.98;1.88;;;;;;;;;;5019216;28;20268;-83
2022/08/11 10:10:47;;;;;;;2.92;2.70;;;;;;;;;;5019434;28;20213;-83
2022/08/11 10:13:24;;;;;;;2.50;2.33;;;;;;;;;;5015905;28;20411;-85
2022/08/11 10:15:55;;;;;;;1.85;1.75;;;;;;;;;;4998826;28;20227;-84
2022/08/11 10:18:48;;;;;;;3.00;2.28;;;;;;;;;;4999578;28;20620;-83
2022/08/11 10:21:28;;;;;;;2.83;2.63;;;;;;;;;;4999525;28;20207;-84
2022/08/11 10:26:53;;;;;;;2.95;2.65;;;;;;;;;;4997755;28;20311;-84
2022/08/11 10:34:55;;;;;;;2.80;2.60;;;;;;;;;;4999812;28;20226;-81
2022/08/11 10:37:24;;;;;;;2.10;2.00;;;;;;;;;;4999134;28;20231;-83
2022/08/11 10:39:55;;;;;;;2.03;1.85;;;;;;;;;;4998768;28;20192;-83
2022/08/11 10:48:09;;;;;;;2.80;2.60;;;;;;;;;;5014263;28;20205;-83
2022/08/11 10:58:55;;;;;;;1.83;1.73;;;;;;;;;;5019161;28;20230;-83
2022/08/11 11:01:25;;;;;;;2.10;2.00;;;;;;;;;;5019575;28;20202;-83
2022/08/11 11:03:58;;;;;;;2.72;2.50;;;;;;;;;;5019093;28;20289;-82
2022/08/11 11:06:31;;;;;;;2.33;2.20;;;;;;;;;;5019749;28;20304;-84
2022/08/11 11:09:04;;;;;;;2.63;2.42;;;;;;;;;;5021256;28;20199;-83
2022/08/11 11:19:59;;;;;;;2.40;2.20;;;;;;;;;;5022334;28;20186;-83
2022/08/11 11:22:38;;;;;;;2.45;2.35;;;;;;;;;;5022523;28;20282;-82
2022/08/11 11:25:20;;;;;;;2.85;2.65;;;;;;;;;;5021620;28;20222;-82
2022/08/11 11:28:19;;;;;;;2.50;2.40;;;;;;;;;;5023515;28;20222;-84
2022/08/11 11:31:01;;;;;;;2.17;2.08;;;;;;;;;;5002944;28;20237;-83
2022/08/11 11:33:50;;;;;;;2.60;2.50;;;;;;;;;;5022821;28;20237;-83
2022/08/11 11:36:26;;;;;;;2.47;2.28;;;;;;;;;;5022231;28;20227;-82
2022/08/11 11:38:55;;;;;;;1.98;1.88;;;;;;;;;;5020964;28;20183;-84
2022/08/11 11:41:26;;;;;;;2.20;2.10;;;;;;;;;;5021864;28;20202;-83
2022/08/11 11:43:55;;;;;;;2.20;2.10;;;;;;;;;;5022290;28;20205;-83
2022/08/11 11:46:26;;;;;;;2.50;2.30;;;;;;;;;;5021964;28;20230;-84
2022/08/11 11:48:55;;;;;;;3.10;2.90;;;;;;;;;;5021818;28;20226;-84
2022/08/11 11:51:25;;;;;;;2.50;2.30;;;;;;;;;;5022330;28;20214;-83
2022/08/11 11:53:52;;;;;;;2.47;2.38;;;;;;;;;;5021847;28;20616;-83
2022/08/11 11:56:23;;;;;;;2.67;2.55;;;;;;;;;;5021521;28;20220;-82
2022/08/11 12:01:37;;;;;;;2.90;2.72;;;;;;;;;;5019414;28;20646;-83
2022/08/11 12:04:05;;;;;;;2.25;2.10;;;;;;;;;;5019273;28;20568;-83
2022/08/11 12:06:35;;;;;;;2.45;2.30;;;;;;;;;;5020697;28;20223;-84
2022/08/11 12:09:02;;;;;;;2.28;2.17;;;;;;;;;;5019457;28;20292;-83
2022/08/11 12:14:19;;;;;;;13.40;2.00;;;;;;;;;;5020217;28;20256;-84
2022/08/11 12:16:48;;;;;;;5.57;2.63;;;;;;;;;;5019059;28;20230;-84
2022/08/11 12:19:20;;;;;;;2.65;2.45;;;;;;;;;;5018080;28;20199;-83
2022/08/11 12:27:22;;;;;;;2.20;2.10;;;;;;;;;;5018974;28;20217;-82
2022/08/11 12:29:52;;;;;;;1.90;1.80;;;;;;;;;;5019818;28;20210;-82
2022/08/11 12:32:21;;;;;;;1.80;1.70;;;;;;;;;;5019373;28;20195;-83
2022/08/11 12:34:49;;;;;;;1.45;1.45;;;;;;;;;;5018891;28;20794;-83
2022/08/11 12:37:22;;;;;;;2.08;1.98;;;;;;;;;;5018846;28;20245;-82
2022/08/11 12:45:30;;;;;;;1.55;1.55;;;;;;;;;;5007532;28;20639;-82
2022/08/11 12:53:53;;;;;;;2.42;2.33;;;;;;;;;;5018010;28;20253;-84
2022/08/11 13:04:58;;;;;;;2.25;2.15;;;;;;;;;;5018018;28;20213;-82
2022/08/11 13:07:26;;;;;;;1.90;1.80;;;;;;;;;;5017456;28;20214;-82
2022/08/11 13:09:56;;;;;;;2.35;2.15;;;;;;;;;;5017742;28;20223;-82
2022/08/11 13:15:13;;;;;;;2.10;2.00;;;;;;;;;;5017476;28;20249;-82
2022/08/11 13:17:41;;;;;;;2.10;1.85;;;;;;;;;;5017495;28;20222;-83
2022/08/11 13:20:11;;;;;;;1.60;1.50;;;;;;;;;;5017755;28;20234;-82
2022/08/11 13:22:39;;;;;;;1.90;1.80;;;;;;;;;;5018254;28;20191;-84
2022/08/11 13:25:09;;;;;;;2.47;2.28;;;;;;;;;;5017180;28;20225;-83
2022/08/11 13:27:37;;;;;;;2.22;2.08;;;;;;;;;;5018419;28;20301;-82
2022/08/11 13:32:52;;;;;;;1.80;1.70;;;;;;;;;;5017669;28;20189;-83
2022/08/11 13:35:20;;;;;;;2.28;2.08;;;;;;;;;;5016747;28;20246;-82
2022/08/11 13:37:49;;;;;;;2.85;1.90;;;;;;;;;;5017689;28;20570;-81
2022/08/11 13:40:20;;;;;;;2.20;2.10;;;;;;;;;;5017060;28;20210;-83
2022/08/11 13:42:48;;;;;;;2.08;1.92;;;;;;;;;;5016501;28;20229;-82
2022/08/11 13:45:16;;;;;;;1.77;1.67;;;;;;;;;;5016828;28;20256;-85
2022/08/11 13:47:44;;;;;;;2.17;2.08;;;;;;;;;;5016727;28;20281;-85
2022/08/11 13:50:12;;;;;;;2.17;2.08;;;;;;;;;;5016669;28;20603;-83
2022/08/11 13:52:40;;;;;;;2.20;2.10;;;;;;;;;;5017226;28;20256;-84
2022/08/11 13:55:20;;;;;;;2.35;1.90;;;;;;;;;;5016555;28;20226;-84
2022/08/11 13:57:51;;;;;;;2.20;2.10;;;;;;;;;;5017684;28;20568;-83
2022/08/11 14:00:20;;;;;;;3.45;2.17;;;;;;;;;;5018519;28;20241;-85
2022/08/11 14:02:50;;;;;;;2.20;2.10;;;;;;;;;;5016432;28;20234;-84
2022/08/11 14:05:20;;;;;;;2.20;2.10;;;;;;;;;;5016670;28;20222;-84
2022/08/11 14:07:52;;;;;;;1.90;1.80;;;;;;;;;;5016710;28;20218;-83
2022/08/11 14:10:22;;;;;;;1.63;1.52;;;;;;;;;;5016406;28;20238;-83
2022/08/11 14:15:46;;;;;;;2.92;2.72;;;;;;;;;;5035946;23;20236;-82
2022/08/11 14:18:18;;;;;;;2.30;2.17;;;;;;;;;;5052138;28;20609;-82
2022/08/11 14:23:39;;;;;;;2.17;1.98;;;;;;;;;;5051790;28;20335;-81
2022/08/11 14:26:30;;;;;;;1.60;1.50;;;;;;;;;;5051998;28;20207;-80
2022/08/11 14:29:01;;;;;;;2.80;1.80;;;;;;;;;;5051759;28;20225;-81
2022/08/11 14:31:31;;;;;;;2.08;1.98;;;;;;;;;;5051816;28;20197;-81
2022/08/11 14:34:03;;;;;;;1.80;1.70;;;;;;;;;;5051879;28;20212;-81
2022/08/11 14:36:34;;;;;;;1.92;1.83;;;;;;;;;;5051910;28;20305;-81
2022/08/11 14:39:04;;;;;;;2.15;2.00;;;;;;;;;;5051954;28;20804;-80
2022/08/11 14:47:05;;;;;;;1.92;1.83;;;;;;;;;;5055215;28;20212;-78
2022/08/11 14:49:34;;;;;;;2.30;2.17;;;;;;;;;;5055580;28;20286;-79
2022/08/11 14:52:04;;;;;;;1.80;1.70;;;;;;;;;;5055357;28;20205;-79
2022/08/11 14:57:17;;;;;;;2.55;2.35;;;;;;;;;;5055235;28;20259;-78
2022/08/11 14:59:48;;;;;;;1.90;1.80;;;;;;;;;;5055576;28;20312;-80
2022/08/11 15:05:05;;;;;;;2.10;2.00;;;;;;;;;;5055650;28;20208;-79
2022/08/11 15:07:33;;;;;;;1.55;1.50;;;;;;;;;;5054983;28;20240;-80
2022/08/11 15:10:05;;;;;;;1.90;1.80;;;;;;;;;;5054965;28;20236;-80
2022/08/11 15:12:33;;;;;;;1.67;1.58;;;;;;;;;;5055555;28;20248;-79
2022/08/11 15:17:50;;;;;;;1.90;1.80;;;;;;;;;;4994849;28;20197;-79
2022/08/11 15:25:55;;;;;;;1.95;1.85;;;;;;;;;;5035023;28;20201;-78
2022/08/11 15:48:13;;;;;;;1.88;1.77;;;;;;;;;;5056108;28;20224;-81
2022/08/11 15:50:46;;;;;;;2.15;1.95;;;;;;;;;;5055807;28;20217;-80
2022/08/11 15:53:24;;;;;;;1.38;1.30;;;;;;;;;;5055310;28;20287;-80
2022/08/11 15:55:52;;;;;;;1.65;1.55;;;;;;;;;;5054935;28;20292;-79
2022/08/11 16:04:14;;;;;;;1.52;1.42;;;;;;;;;;5067660;28;20208;-80
2022/08/11 16:06:50;;;;;;;1.45;1.45;;;;;;;;;;5059847;28;20295;-81
2022/08/11 16:09:23;;;;;;;1.70;1.60;;;;;;;;;;5059955;28;20260;-80
2022/08/11 16:11:52;;;;;;;1.42;1.33;;;;;;;;;;5055171;28;20685;-78
2022/08/11 16:17:07;;;;;;;1.73;1.63;;;;;;;;;;5055284;28;20215;-80
2022/08/11 16:19:37;;;;;;;1.23;1.23;;;;;;;;;;5055238;28;20280;-79
2022/08/11 16:22:10;;;;;;;2.30;1.50;;;;;;;;;;5054516;28;20208;-79
2022/08/11 16:24:42;;;;;;;1.92;1.83;;;;;;;;;;5056046;28;20572;-79
2022/08/11 16:27:12;;;;;;;1.80;1.70;;;;;;;;;;5055383;28;20216;-79
2022/08/11 16:29:43;;;;;;;1.70;1.60;;;;;;;;;;5055321;28;20233;-79
2022/08/11 16:32:19;;;;;;;1.88;1.77;;;;;;;;;;5055638;28;20212;-79
2022/08/11 16:40:27;;;;;;;1.40;1.40;;;;;;;;;;5054511;28;20680;-78
2022/08/11 16:48:32;;;;;;;1.80;1.70;;;;;;;;;;5034547;28;20220;-80
2022/08/11 16:51:01;;;;;;;1.73;1.63;;;;;;;;;;5034418;28;20628;-80
2022/08/11 16:53:30;;;;;;;1.88;1.42;;;;;;;;;;5034744;28;20230;-79
2022/08/11 16:56:01;;;;;;;1.73;1.63;;;;;;;;;;5033855;28;20285;-80
2022/08/11 17:01:18;;;;;;;1.77;1.67;;;;;;;;;;5034474;28;20328;-79
2022/08/11 17:18:07;;;;;;;1.58;1.48;;;;;;;;;;5053981;28;20268;-80
2022/08/11 17:20:37;;;;;;;1.70;1.60;;;;;;;;;;5053430;28;20233;-79
2022/08/11 17:25:52;;;;;;;1.45;1.40;;;;;;;;;;5053558;28;20315;-80
2022/08/11 17:28:20;;;;;;;1.55;1.48;;;;;;;;;;5053129;28;20643;-81
2022/08/11 17:36:19;;;;;;;1.30;1.30;;;;;;;;;;5053092;28;20199;-78
2022/08/11 17:38:49;;;;;;;1.55;1.45;;;;;;;;;;5054557;28;20304;-80
2022/08/11 17:49:38;;;;;;;2.30;2.20;;;;;;;;;;5034717;28;20217;-80
2022/08/11 18:00:25;;;;;;;1.63;1.52;;;;;;;;;;5031746;28;20193;-79
2022/08/11 18:05:42;;;;;;;1.60;1.50;;;;;;;;;;5052801;28;20687;-79
